sensor_id;sensor_type;location;lat;lon;timestamp;P1;durP1;ratioP1;P2;durP2;ratioP2
13973;SDS011;7060;43.770;4.008;2022-07-24T00:00:07;5.47;;;4.45;;
13973;SDS011;7060;43.770;4.008;2022-07-24T00:02:39;6.63;;;4.28;;
13973;SDS011;7060;43.770;4.008;2022-07-24T00:05:09;6.78;;;4.75;;
13973;SDS011;7060;43.770;4.008;2022-07-24T00:07:38;5.95;;;4.78;;
13973;SDS011;7060;43.770;4.008;2022-07-24T00:10:08;5.05;;;4.65;;
13973;SDS011;7060;43.770;4.008;2022-07-24T00:12:38;5.63;;;5.13;;
13973;SDS011;7060;43.770;4.008;2022-07-24T00:15:07;5.22;;;4.40;;
13973;SDS011;7060;43.770;4.008;2022-07-24T00:17:36;5.88;;;4.70;;
13973;SDS011;7060;43.770;4.008;2022-07-24T00:20:06;5.20;;;4.80;;
13973;SDS011;7060;43.770;4.008;2022-07-24T00:22:38;4.55;;;4.15;;
13973;SDS011;7060;43.770;4.008;2022-07-24T00:25:06;4.95;;;4.55;;
13973;SDS011;7060;43.770;4.008;2022-07-24T00:27:36;4.68;;;4.13;;
13973;SDS011;7060;43.770;4.008;2022-07-24T00:30:05;5.20;;;4.80;;
13973;SDS011;7060;43.770;4.008;2022-07-24T00:32:35;5.22;;;4.72;;
13973;SDS011;7060;43.770;4.008;2022-07-24T00:35:05;6.30;;;4.50;;
13973;SDS011;7060;43.770;4.008;2022-07-24T00:37:34;5.10;;;4.70;;
13973;SDS011;7060;43.770;4.008;2022-07-24T00:40:05;7.22;;;4.95;;
13973;SDS011;7060;43.770;4.008;2022-07-24T00:42:34;5.75;;;5.25;;
13973;SDS011;7060;43.770;4.008;2022-07-24T00:45:03;4.50;;;4.20;;
13973;SDS011;7060;43.770;4.008;2022-07-24T00:47:49;4.78;;;4.38;;
13973;SDS011;7060;43.770;4.008;2022-07-24T00:50:23;4.63;;;4.22;;
13973;SDS011;7060;43.770;4.008;2022-07-24T00:52:52;5.70;;;5.10;;
13973;SDS011;7060;43.770;4.008;2022-07-24T00:55:24;4.95;;;4.38;;
13973;SDS011;7060;43.770;4.008;2022-07-24T00:57:54;4.72;;;4.28;;
13973;SDS011;7060;43.770;4.008;2022-07-24T01:00:23;4.90;;;4.32;;
13973;SDS011;7060;43.770;4.008;2022-07-24T01:02:52;4.68;;;4.28;;
13973;SDS011;7060;43.770;4.008;2022-07-24T01:05:23;5.65;;;5.15;;
13973;SDS011;7060;43.770;4.008;2022-07-24T01:07:51;4.90;;;4.50;;
13973;SDS011;7060;43.770;4.008;2022-07-24T01:10:20;5.32;;;4.82;;
13973;SDS011;7060;43.770;4.008;2022-07-24T01:12:51;5.18;;;4.78;;
13973;SDS011;7060;43.770;4.008;2022-07-24T01:15:20;5.35;;;4.85;;
13973;SDS011;7060;43.770;4.008;2022-07-24T01:17:49;5.40;;;4.90;;
13973;SDS011;7060;43.770;4.008;2022-07-24T01:20:18;4.93;;;4.53;;
13973;SDS011;7060;43.770;4.008;2022-07-24T01:22:48;5.00;;;4.50;;
13973;SDS011;7060;43.770;4.008;2022-07-24T01:25:17;5.97;;;5.38;;
13973;SDS011;7060;43.770;4.008;2022-07-24T01:27:46;5.15;;;4.75;;
13973;SDS011;7060;43.770;4.008;2022-07-24T01:30:15;5.55;;;4.78;;
13973;SDS011;7060;43.770;4.008;2022-07-24T01:32:44;4.95;;;4.43;;
13973;SDS011;7060;43.770;4.008;2022-07-24T01:35:13;4.75;;;4.35;;
13973;SDS011;7060;43.770;4.008;2022-07-24T01:37:51;5.82;;;4.63;;
13973;SDS011;7060;43.770;4.008;2022-07-24T01:40:20;7.20;;;4.72;;
13973;SDS011;7060;43.770;4.008;2022-07-24T01:42:49;5.40;;;4.50;;
13973;SDS011;7060;43.770;4.008;2022-07-24T01:45:19;4.75;;;4.25;;
13973;SDS011;7060;43.770;4.008;2022-07-24T01:47:48;5.18;;;4.55;;
13973;SDS011;7060;43.770;4.008;2022-07-24T01:50:17;5.55;;;4.03;;
13973;SDS011;7060;43.770;4.008;2022-07-24T01:52:46;4.03;;;3.72;;
13973;SDS011;7060;43.770;4.008;2022-07-24T01:55:17;6.32;;;4.22;;
13973;SDS011;7060;43.770;4.008;2022-07-24T01:57:46;5.40;;;4.63;;
13973;SDS011;7060;43.770;4.008;2022-07-24T02:00:16;4.50;;;4.10;;
13973;SDS011;7060;43.770;4.008;2022-07-24T02:02:45;5.55;;;5.07;;
13973;SDS011;7060;43.770;4.008;2022-07-24T02:05:14;4.40;;;4.10;;
13973;SDS011;7060;43.770;4.008;2022-07-24T02:07:43;4.90;;;4.40;;
13973;SDS011;7060;43.770;4.008;2022-07-24T02:10:13;9.43;;;5.30;;
13973;SDS011;7060;43.770;4.008;2022-07-24T02:12:44;5.55;;;4.90;;
13973;SDS011;7060;43.770;4.008;2022-07-24T02:15:14;4.50;;;3.88;;
13973;SDS011;7060;43.770;4.008;2022-07-24T02:17:45;5.18;;;4.00;;
13973;SDS011;7060;43.770;4.008;2022-07-24T02:20:15;5.05;;;4.63;;
13973;SDS011;7060;43.770;4.008;2022-07-24T02:22:44;5.18;;;4.40;;
13973;SDS011;7060;43.770;4.008;2022-07-24T02:25:13;5.65;;;4.40;;
13973;SDS011;7060;43.770;4.008;2022-07-24T02:27:43;5.10;;;4.55;;
13973;SDS011;7060;43.770;4.008;2022-07-24T02:30:13;4.40;;;4.00;;
13973;SDS011;7060;43.770;4.008;2022-07-24T02:32:44;4.47;;;4.07;;
13973;SDS011;7060;43.770;4.008;2022-07-24T02:35:13;4.93;;;4.10;;
13973;SDS011;7060;43.770;4.008;2022-07-24T02:37:43;5.40;;;4.13;;
13973;SDS011;7060;43.770;4.008;2022-07-24T02:40:13;4.60;;;4.07;;
13973;SDS011;7060;43.770;4.008;2022-07-24T02:42:43;4.60;;;4.20;;
13973;SDS011;7060;43.770;4.008;2022-07-24T02:45:13;6.70;;;4.55;;
13973;SDS011;7060;43.770;4.008;2022-07-24T02:47:48;6.22;;;4.30;;
13973;SDS011;7060;43.770;4.008;2022-07-24T02:50:19;5.00;;;4.30;;
13973;SDS011;7060;43.770;4.008;2022-07-24T03:05:04;5.30;;;4.45;;
13973;SDS011;7060;43.770;4.008;2022-07-24T03:07:35;4.75;;;4.13;;
13973;SDS011;7060;43.770;4.008;2022-07-24T03:10:05;4.75;;;4.22;;
13973;SDS011;7060;43.770;4.008;2022-07-24T03:12:35;4.93;;;4.28;;
13973;SDS011;7060;43.770;4.008;2022-07-24T03:15:05;5.25;;;3.95;;
13973;SDS011;7060;43.770;4.008;2022-07-24T03:17:34;4.55;;;4.15;;
13973;SDS011;7060;43.770;4.008;2022-07-24T03:20:08;6.63;;;4.47;;
13973;SDS011;7060;43.770;4.008;2022-07-24T03:22:38;4.50;;;4.10;;
13973;SDS011;7060;43.770;4.008;2022-07-24T03:25:07;5.28;;;4.70;;
13973;SDS011;7060;43.770;4.008;2022-07-24T03:27:36;5.20;;;4.43;;
13973;SDS011;7060;43.770;4.008;2022-07-24T03:30:05;4.40;;;4.00;;
13973;SDS011;7060;43.770;4.008;2022-07-24T03:32:36;5.05;;;4.38;;
13973;SDS011;7060;43.770;4.008;2022-07-24T03:35:06;4.75;;;4.35;;
13973;SDS011;7060;43.770;4.008;2022-07-24T03:37:38;4.78;;;4.38;;
13973;SDS011;7060;43.770;4.008;2022-07-24T03:40:07;5.10;;;4.60;;
13973;SDS011;7060;43.770;4.008;2022-07-24T03:42:37;4.90;;;4.40;;
13973;SDS011;7060;43.770;4.008;2022-07-24T03:45:06;5.78;;;4.60;;
13973;SDS011;7060;43.770;4.008;2022-07-24T03:47:36;6.28;;;4.30;;
13973;SDS011;7060;43.770;4.008;2022-07-24T03:50:05;5.07;;;4.57;;
13973;SDS011;7060;43.770;4.008;2022-07-24T03:52:35;4.90;;;4.50;;
13973;SDS011;7060;43.770;4.008;2022-07-24T03:55:05;5.00;;;4.60;;
13973;SDS011;7060;43.770;4.008;2022-07-24T03:57:34;4.95;;;4.45;;
13973;SDS011;7060;43.770;4.008;2022-07-24T04:00:03;5.18;;;4.75;;
13973;SDS011;7060;43.770;4.008;2022-07-24T04:02:38;4.90;;;4.50;;
13973;SDS011;7060;43.770;4.008;2022-07-24T04:05:07;5.22;;;4.78;;
13973;SDS011;7060;43.770;4.008;2022-07-24T04:07:38;5.97;;;5.00;;
13973;SDS011;7060;43.770;4.008;2022-07-24T04:10:08;5.32;;;4.93;;
13973;SDS011;7060;43.770;4.008;2022-07-24T04:12:37;6.00;;;5.03;;
13973;SDS011;7060;43.770;4.008;2022-07-24T04:15:06;6.20;;;4.90;;
13973;SDS011;7060;43.770;4.008;2022-07-24T04:17:37;5.40;;;4.88;;
13973;SDS011;7060;43.770;4.008;2022-07-24T04:20:07;5.25;;;4.57;;
13973;SDS011;7060;43.770;4.008;2022-07-24T04:22:39;6.30;;;5.45;;
13973;SDS011;7060;43.770;4.008;2022-07-24T04:25:08;5.50;;;5.00;;
13973;SDS011;7060;43.770;4.008;2022-07-24T04:27:37;4.85;;;4.53;;
13973;SDS011;7060;43.770;4.008;2022-07-24T04:30:06;5.93;;;5.18;;
13973;SDS011;7060;43.770;4.008;2022-07-24T04:32:35;6.68;;;5.47;;
13973;SDS011;7060;43.770;4.008;2022-07-24T04:35:05;5.03;;;4.55;;
13973;SDS011;7060;43.770;4.008;2022-07-24T04:37:34;5.55;;;5.05;;
13973;SDS011;7060;43.770;4.008;2022-07-24T04:40:06;4.70;;;4.30;;
13973;SDS011;7060;43.770;4.008;2022-07-24T04:42:37;5.13;;;4.63;;
13973;SDS011;7060;43.770;4.008;2022-07-24T04:45:06;5.07;;;4.60;;
13973;SDS011;7060;43.770;4.008;2022-07-24T04:47:36;4.97;;;4.50;;
13973;SDS011;7060;43.770;4.008;2022-07-24T04:50:05;5.90;;;5.10;;
13973;SDS011;7060;43.770;4.008;2022-07-24T04:52:35;5.60;;;4.97;;
13973;SDS011;7060;43.770;4.008;2022-07-24T04:55:06;5.22;;;4.78;;
13973;SDS011;7060;43.770;4.008;2022-07-24T04:57:36;4.88;;;4.47;;
13973;SDS011;7060;43.770;4.008;2022-07-24T05:00:06;5.10;;;4.53;;
13973;SDS011;7060;43.770;4.008;2022-07-24T05:02:37;5.13;;;4.63;;
13973;SDS011;7060;43.770;4.008;2022-07-24T05:05:06;5.15;;;4.75;;
13973;SDS011;7060;43.770;4.008;2022-07-24T05:07:35;5.55;;;5.05;;
13973;SDS011;7060;43.770;4.008;2022-07-24T05:10:06;5.72;;;5.00;;
13973;SDS011;7060;43.770;4.008;2022-07-24T05:12:36;5.63;;;4.90;;
13973;SDS011;7060;43.770;4.008;2022-07-24T05:15:05;7.20;;;4.97;;
13973;SDS011;7060;43.770;4.008;2022-07-24T05:17:36;5.43;;;4.70;;
13973;SDS011;7060;43.770;4.008;2022-07-24T05:20:05;7.00;;;4.88;;
13973;SDS011;7060;43.770;4.008;2022-07-24T05:22:35;5.63;;;4.88;;
13973;SDS011;7060;43.770;4.008;2022-07-24T05:25:07;5.28;;;4.88;;
13973;SDS011;7060;43.770;4.008;2022-07-24T05:27:36;5.35;;;4.82;;
13973;SDS011;7060;43.770;4.008;2022-07-24T05:30:06;5.20;;;4.72;;
13973;SDS011;7060;43.770;4.008;2022-07-24T05:32:36;6.13;;;4.70;;
13973;SDS011;7060;43.770;4.008;2022-07-24T05:35:05;5.22;;;4.80;;
13973;SDS011;7060;43.770;4.008;2022-07-24T05:37:35;5.30;;;4.80;;
13973;SDS011;7060;43.770;4.008;2022-07-24T05:40:04;6.35;;;5.10;;
13973;SDS011;7060;43.770;4.008;2022-07-24T05:42:36;5.63;;;5.13;;
13973;SDS011;7060;43.770;4.008;2022-07-24T05:45:05;6.00;;;5.40;;
13973;SDS011;7060;43.770;4.008;2022-07-24T05:47:37;5.25;;;4.70;;
13973;SDS011;7060;43.770;4.008;2022-07-24T05:50:07;6.18;;;5.07;;
13973;SDS011;7060;43.770;4.008;2022-07-24T05:52:37;7.55;;;5.70;;
13973;SDS011;7060;43.770;4.008;2022-07-24T05:55:08;5.30;;;4.90;;
13973;SDS011;7060;43.770;4.008;2022-07-24T05:57:42;4.65;;;4.20;;
13973;SDS011;7060;43.770;4.008;2022-07-24T06:00:12;5.75;;;5.13;;
13973;SDS011;7060;43.770;4.008;2022-07-24T06:02:43;5.93;;;5.25;;
13973;SDS011;7060;43.770;4.008;2022-07-24T06:05:14;5.57;;;5.10;;
13973;SDS011;7060;43.770;4.008;2022-07-24T06:07:43;6.03;;;5.43;;
13973;SDS011;7060;43.770;4.008;2022-07-24T06:10:13;5.28;;;4.60;;
13973;SDS011;7060;43.770;4.008;2022-07-24T06:12:42;5.22;;;4.82;;
13973;SDS011;7060;43.770;4.008;2022-07-24T06:15:11;6.57;;;5.65;;
13973;SDS011;7060;43.770;4.008;2022-07-24T06:17:41;5.22;;;4.72;;
13973;SDS011;7060;43.770;4.008;2022-07-24T06:20:11;5.65;;;4.78;;
13973;SDS011;7060;43.770;4.008;2022-07-24T06:22:40;5.47;;;4.88;;
13973;SDS011;7060;43.770;4.008;2022-07-24T06:25:17;6.85;;;4.70;;
13973;SDS011;7060;43.770;4.008;2022-07-24T06:27:46;5.80;;;5.22;;
13973;SDS011;7060;43.770;4.008;2022-07-24T06:30:17;5.57;;;5.07;;
13973;SDS011;7060;43.770;4.008;2022-07-24T06:32:49;6.00;;;5.40;;
13973;SDS011;7060;43.770;4.008;2022-07-24T06:35:20;5.97;;;5.45;;
13973;SDS011;7060;43.770;4.008;2022-07-24T06:37:49;5.55;;;5.05;;
13973;SDS011;7060;43.770;4.008;2022-07-24T06:40:19;6.13;;;5.53;;
13973;SDS011;7060;43.770;4.008;2022-07-24T06:42:48;5.45;;;5.03;;
13973;SDS011;7060;43.770;4.008;2022-07-24T06:45:17;6.55;;;5.97;;
13973;SDS011;7060;43.770;4.008;2022-07-24T06:47:46;7.07;;;6.35;;
13973;SDS011;7060;43.770;4.008;2022-07-24T06:50:15;5.00;;;4.70;;
13973;SDS011;7060;43.770;4.008;2022-07-24T06:52:44;5.32;;;4.93;;
13973;SDS011;7060;43.770;4.008;2022-07-24T06:55:13;6.03;;;5.63;;
13973;SDS011;7060;43.770;4.008;2022-07-24T06:57:43;7.10;;;6.50;;
13973;SDS011;7060;43.770;4.008;2022-07-24T07:00:13;5.55;;;5.03;;
13973;SDS011;7060;43.770;4.008;2022-07-24T07:02:42;6.55;;;6.05;;
13973;SDS011;7060;43.770;4.008;2022-07-24T07:05:13;6.47;;;5.97;;
13973;SDS011;7060;43.770;4.008;2022-07-24T07:07:42;6.00;;;5.60;;
13973;SDS011;7060;43.770;4.008;2022-07-24T07:10:11;5.85;;;5.45;;
13973;SDS011;7060;43.770;4.008;2022-07-24T07:12:40;5.78;;;5.38;;
13973;SDS011;7060;43.770;4.008;2022-07-24T07:15:11;5.97;;;5.47;;
13973;SDS011;7060;43.770;4.008;2022-07-24T07:17:41;6.18;;;5.78;;
13973;SDS011;7060;43.770;4.008;2022-07-24T07:20:11;5.95;;;5.55;;
13973;SDS011;7060;43.770;4.008;2022-07-24T07:22:41;6.57;;;5.90;;
13973;SDS011;7060;43.770;4.008;2022-07-24T07:25:11;6.57;;;6.15;;
13973;SDS011;7060;43.770;4.008;2022-07-24T07:27:40;5.88;;;5.47;;
13973;SDS011;7060;43.770;4.008;2022-07-24T07:30:11;6.55;;;5.95;;
13973;SDS011;7060;43.770;4.008;2022-07-24T07:32:40;6.00;;;5.60;;
13973;SDS011;7060;43.770;4.008;2022-07-24T07:35:09;6.13;;;5.72;;
13973;SDS011;7060;43.770;4.008;2022-07-24T07:37:47;6.05;;;5.63;;
13973;SDS011;7060;43.770;4.008;2022-07-24T07:40:18;6.10;;;5.70;;
13973;SDS011;7060;43.770;4.008;2022-07-24T07:42:47;6.15;;;5.65;;
13973;SDS011;7060;43.770;4.008;2022-07-24T07:45:17;6.22;;;5.72;;
13973;SDS011;7060;43.770;4.008;2022-07-24T07:47:46;6.13;;;5.60;;
13973;SDS011;7060;43.770;4.008;2022-07-24T07:50:15;6.45;;;5.97;;
13973;SDS011;7060;43.770;4.008;2022-07-24T07:52:44;6.60;;;6.00;;
13973;SDS011;7060;43.770;4.008;2022-07-24T07:55:13;5.63;;;5.22;;
13973;SDS011;7060;43.770;4.008;2022-07-24T07:57:42;5.88;;;5.47;;
13973;SDS011;7060;43.770;4.008;2022-07-24T08:00:32;5.90;;;5.40;;
13973;SDS011;7060;43.770;4.008;2022-07-24T08:03:01;5.70;;;5.22;;
13973;SDS011;7060;43.770;4.008;2022-07-24T08:05:31;5.82;;;5.30;;
13973;SDS011;7060;43.770;4.008;2022-07-24T08:08:00;5.15;;;4.75;;
13973;SDS011;7060;43.770;4.008;2022-07-24T08:10:30;5.45;;;4.97;;
13973;SDS011;7060;43.770;4.008;2022-07-24T08:12:59;5.53;;;5.03;;
13973;SDS011;7060;43.770;4.008;2022-07-24T08:15:28;5.72;;;5.28;;
13973;SDS011;7060;43.770;4.008;2022-07-24T08:17:58;6.13;;;5.53;;
13973;SDS011;7060;43.770;4.008;2022-07-24T08:20:27;5.57;;;5.15;;
13973;SDS011;7060;43.770;4.008;2022-07-24T08:22:56;5.53;;;5.05;;
13973;SDS011;7060;43.770;4.008;2022-07-24T08:25:25;5.70;;;5.20;;
13973;SDS011;7060;43.770;4.008;2022-07-24T08:27:54;5.20;;;4.70;;
13973;SDS011;7060;43.770;4.008;2022-07-24T08:30:23;5.50;;;5.10;;
13973;SDS011;7060;43.770;4.008;2022-07-24T08:32:53;5.15;;;4.75;;
13973;SDS011;7060;43.770;4.008;2022-07-24T08:35:24;5.05;;;4.65;;
13973;SDS011;7060;43.770;4.008;2022-07-24T08:37:59;5.00;;;4.60;;
13973;SDS011;7060;43.770;4.008;2022-07-24T08:40:30;4.93;;;4.53;;
13973;SDS011;7060;43.770;4.008;2022-07-24T08:43:02;5.78;;;5.25;;
13973;SDS011;7060;43.770;4.008;2022-07-24T08:45:33;4.88;;;4.47;;
13973;SDS011;7060;43.770;4.008;2022-07-24T08:48:04;4.88;;;4.53;;
13973;SDS011;7060;43.770;4.008;2022-07-24T08:50:37;5.47;;;5.00;;
13973;SDS011;7060;43.770;4.008;2022-07-24T08:53:06;4.30;;;3.90;;
13973;SDS011;7060;43.770;4.008;2022-07-24T08:55:35;4.70;;;4.28;;
13973;SDS011;7060;43.770;4.008;2022-07-24T08:58:04;6.65;;;5.00;;
13973;SDS011;7060;43.770;4.008;2022-07-24T09:00:33;5.13;;;4.72;;
13973;SDS011;7060;43.770;4.008;2022-07-24T09:03:02;5.07;;;4.65;;
13973;SDS011;7060;43.770;4.008;2022-07-24T09:05:31;4.38;;;4.05;;
13973;SDS011;7060;43.770;4.008;2022-07-24T09:08:08;5.43;;;4.70;;
13973;SDS011;7060;43.770;4.008;2022-07-24T09:10:38;4.63;;;4.22;;
13973;SDS011;7060;43.770;4.008;2022-07-24T09:13:13;4.57;;;4.10;;
13973;SDS011;7060;43.770;4.008;2022-07-24T09:15:44;4.43;;;4.07;;
13973;SDS011;7060;43.770;4.008;2022-07-24T09:18:24;5.18;;;4.70;;
13973;SDS011;7060;43.770;4.008;2022-07-24T09:20:57;4.72;;;4.32;;
13973;SDS011;7060;43.770;4.008;2022-07-24T09:23:29;5.30;;;4.85;;
13973;SDS011;7060;43.770;4.008;2022-07-24T09:25:57;4.55;;;4.18;;
13973;SDS011;7060;43.770;4.008;2022-07-24T09:28:27;5.63;;;4.00;;
13973;SDS011;7060;43.770;4.008;2022-07-24T09:31:00;4.22;;;3.88;;
13973;SDS011;7060;43.770;4.008;2022-07-24T09:33:30;4.28;;;3.97;;
13973;SDS011;7060;43.770;4.008;2022-07-24T09:36:10;4.60;;;4.20;;
13973;SDS011;7060;43.770;4.008;2022-07-24T09:38:45;4.72;;;4.32;;
13973;SDS011;7060;43.770;4.008;2022-07-24T09:41:19;4.80;;;4.40;;
13973;SDS011;7060;43.770;4.008;2022-07-24T09:43:57;4.13;;;3.72;;
13973;SDS011;7060;43.770;4.008;2022-07-24T09:46:27;4.75;;;4.30;;
13973;SDS011;7060;43.770;4.008;2022-07-24T09:48:58;4.40;;;4.00;;
13973;SDS011;7060;43.770;4.008;2022-07-24T09:51:28;4.20;;;3.90;;
13973;SDS011;7060;43.770;4.008;2022-07-24T09:53:59;4.55;;;4.25;;
13973;SDS011;7060;43.770;4.008;2022-07-24T09:56:29;4.95;;;4.55;;
13973;SDS011;7060;43.770;4.008;2022-07-24T09:59:05;4.63;;;4.22;;
13973;SDS011;7060;43.770;4.008;2022-07-24T10:01:35;4.93;;;4.28;;
13973;SDS011;7060;43.770;4.008;2022-07-24T10:04:06;5.13;;;4.72;;
13973;SDS011;7060;43.770;4.008;2022-07-24T10:06:38;5.63;;;4.95;;
13973;SDS011;7060;43.770;4.008;2022-07-24T10:09:14;4.75;;;4.40;;
13973;SDS011;7060;43.770;4.008;2022-07-24T10:11:47;4.50;;;4.20;;
13973;SDS011;7060;43.770;4.008;2022-07-24T10:14:20;5.00;;;4.50;;
13973;SDS011;7060;43.770;4.008;2022-07-24T10:16:51;4.68;;;4.30;;
13973;SDS011;7060;43.770;4.008;2022-07-24T10:19:51;4.93;;;4.53;;
13973;SDS011;7060;43.770;4.008;2022-07-24T10:22:21;4.60;;;4.20;;
13973;SDS011;7060;43.770;4.008;2022-07-24T10:24:56;4.38;;;4.07;;
13973;SDS011;7060;43.770;4.008;2022-07-24T10:27:28;4.30;;;3.90;;
13973;SDS011;7060;43.770;4.008;2022-07-24T10:30:00;4.43;;;4.03;;
13973;SDS011;7060;43.770;4.008;2022-07-24T10:32:32;5.07;;;4.63;;
13973;SDS011;7060;43.770;4.008;2022-07-24T10:35:07;4.95;;;4.65;;
13973;SDS011;7060;43.770;4.008;2022-07-24T10:37:50;4.40;;;4.10;;
13973;SDS011;7060;43.770;4.008;2022-07-24T10:40:26;5.85;;;4.55;;
13973;SDS011;7060;43.770;4.008;2022-07-24T10:43:08;4.80;;;4.40;;
13973;SDS011;7060;43.770;4.008;2022-07-24T10:45:39;4.63;;;4.25;;
13973;SDS011;7060;43.770;4.008;2022-07-24T10:48:29;5.10;;;4.70;;
13973;SDS011;7060;43.770;4.008;2022-07-24T10:51:00;5.22;;;4.43;;
13973;SDS011;7060;43.770;4.008;2022-07-24T10:53:45;4.60;;;4.20;;
13973;SDS011;7060;43.770;4.008;2022-07-24T10:56:21;4.50;;;4.20;;
13973;SDS011;7060;43.770;4.008;2022-07-24T10:59:00;6.00;;;5.35;;
13973;SDS011;7060;43.770;4.008;2022-07-24T11:01:41;4.95;;;4.55;;
13973;SDS011;7060;43.770;4.008;2022-07-24T11:07:09;5.35;;;4.60;;
13973;SDS011;7060;43.770;4.008;2022-07-24T11:09:56;4.47;;;4.18;;
13973;SDS011;7060;43.770;4.008;2022-07-24T11:12:30;6.13;;;4.72;;
13973;SDS011;7060;43.770;4.008;2022-07-24T11:15:07;4.53;;;4.13;;
13973;SDS011;7060;43.770;4.008;2022-07-24T11:17:54;4.95;;;4.50;;
13973;SDS011;7060;43.770;4.008;2022-07-24T11:20:22;4.78;;;4.38;;
13973;SDS011;7060;43.770;4.008;2022-07-24T11:22:52;4.13;;;3.78;;
13973;SDS011;7060;43.770;4.008;2022-07-24T11:25:25;5.15;;;4.75;;
13973;SDS011;7060;43.770;4.008;2022-07-24T11:27:57;5.38;;;4.97;;
13973;SDS011;7060;43.770;4.008;2022-07-24T11:30:27;6.05;;;3.95;;
13973;SDS011;7060;43.770;4.008;2022-07-24T11:32:57;5.55;;;4.30;;
13973;SDS011;7060;43.770;4.008;2022-07-24T11:35:27;4.30;;;4.00;;
13973;SDS011;7060;43.770;4.008;2022-07-24T11:37:58;4.75;;;4.15;;
13973;SDS011;7060;43.770;4.008;2022-07-24T11:40:29;4.70;;;4.38;;
13973;SDS011;7060;43.770;4.008;2022-07-24T11:43:00;5.78;;;4.50;;
13973;SDS011;7060;43.770;4.008;2022-07-24T11:45:37;6.07;;;4.30;;
13973;SDS011;7060;43.770;4.008;2022-07-24T11:48:06;4.97;;;4.10;;
13973;SDS011;7060;43.770;4.008;2022-07-24T11:51:02;4.85;;;4.50;;
13973;SDS011;7060;43.770;4.008;2022-07-24T11:53:51;4.88;;;4.47;;
13973;SDS011;7060;43.770;4.008;2022-07-24T11:56:20;8.02;;;4.70;;
13973;SDS011;7060;43.770;4.008;2022-07-24T11:58:50;5.30;;;4.80;;
13973;SDS011;7060;43.770;4.008;2022-07-24T12:01:19;5.03;;;4.63;;
13973;SDS011;7060;43.770;4.008;2022-07-24T12:03:49;5.15;;;4.65;;
13973;SDS011;7060;43.770;4.008;2022-07-24T12:06:18;15.63;;;6.20;;
13973;SDS011;7060;43.770;4.008;2022-07-24T12:08:47;7.07;;;6.43;;
13973;SDS011;7060;43.770;4.008;2022-07-24T12:11:19;7.13;;;6.53;;
13973;SDS011;7060;43.770;4.008;2022-07-24T12:13:51;6.32;;;5.82;;
13973;SDS011;7060;43.770;4.008;2022-07-24T12:16:23;7.90;;;6.05;;
13973;SDS011;7060;43.770;4.008;2022-07-24T12:18:53;6.82;;;6.15;;
13973;SDS011;7060;43.770;4.008;2022-07-24T12:21:39;6.78;;;6.05;;
13973;SDS011;7060;43.770;4.008;2022-07-24T12:24:08;6.55;;;6.05;;
13973;SDS011;7060;43.770;4.008;2022-07-24T12:26:47;6.40;;;6.00;;
13973;SDS011;7060;43.770;4.008;2022-07-24T12:29:22;6.60;;;6.10;;
13973;SDS011;7060;43.770;4.008;2022-07-24T12:31:52;6.75;;;6.22;;
13973;SDS011;7060;43.770;4.008;2022-07-24T12:34:21;6.72;;;6.22;;
13973;SDS011;7060;43.770;4.008;2022-07-24T12:36:50;6.32;;;5.82;;
13973;SDS011;7060;43.770;4.008;2022-07-24T12:39:19;7.05;;;6.50;;
13973;SDS011;7060;43.770;4.008;2022-07-24T12:41:50;6.68;;;6.07;;
13973;SDS011;7060;43.770;4.008;2022-07-24T12:44:40;7.07;;;6.47;;
13973;SDS011;7060;43.770;4.008;2022-07-24T12:47:11;6.93;;;6.43;;
13973;SDS011;7060;43.770;4.008;2022-07-24T12:49:40;6.78;;;6.32;;
13973;SDS011;7060;43.770;4.008;2022-07-24T12:52:19;6.40;;;5.53;;
13973;SDS011;7060;43.770;4.008;2022-07-24T12:54:50;6.82;;;6.20;;
13973;SDS011;7060;43.770;4.008;2022-07-24T12:57:20;6.85;;;6.20;;
13973;SDS011;7060;43.770;4.008;2022-07-24T13:00:00;6.20;;;5.70;;
13973;SDS011;7060;43.770;4.008;2022-07-24T13:02:31;6.38;;;5.88;;
13973;SDS011;7060;43.770;4.008;2022-07-24T13:05:01;6.55;;;5.93;;
13973;SDS011;7060;43.770;4.008;2022-07-24T13:07:30;6.80;;;6.30;;
13973;SDS011;7060;43.770;4.008;2022-07-24T13:09:59;6.63;;;6.22;;
13973;SDS011;7060;43.770;4.008;2022-07-24T13:12:28;6.55;;;6.13;;
13973;SDS011;7060;43.770;4.008;2022-07-24T13:14:57;6.47;;;6.07;;
13973;SDS011;7060;43.770;4.008;2022-07-24T13:17:27;6.68;;;6.20;;
13973;SDS011;7060;43.770;4.008;2022-07-24T13:19:56;7.00;;;6.40;;
13973;SDS011;7060;43.770;4.008;2022-07-24T13:22:25;6.82;;;6.18;;
13973;SDS011;7060;43.770;4.008;2022-07-24T13:24:55;6.85;;;6.35;;
13973;SDS011;7060;43.770;4.008;2022-07-24T13:27:24;7.10;;;6.60;;
13973;SDS011;7060;43.770;4.008;2022-07-24T13:29:53;6.53;;;5.93;;
13973;SDS011;7060;43.770;4.008;2022-07-24T13:32:22;6.75;;;6.15;;
13973;SDS011;7060;43.770;4.008;2022-07-24T13:34:52;6.90;;;6.38;;
13973;SDS011;7060;43.770;4.008;2022-07-24T13:37:21;6.85;;;6.28;;
13973;SDS011;7060;43.770;4.008;2022-07-24T13:39:50;6.88;;;6.28;;
13973;SDS011;7060;43.770;4.008;2022-07-24T13:42:19;7.75;;;6.38;;
13973;SDS011;7060;43.770;4.008;2022-07-24T13:44:48;6.68;;;6.07;;
13973;SDS011;7060;43.770;4.008;2022-07-24T13:47:17;7.28;;;6.65;;
13973;SDS011;7060;43.770;4.008;2022-07-24T13:49:46;7.15;;;6.50;;
13973;SDS011;7060;43.770;4.008;2022-07-24T13:52:16;6.38;;;5.97;;
13973;SDS011;7060;43.770;4.008;2022-07-24T13:54:45;6.57;;;6.13;;
13973;SDS011;7060;43.770;4.008;2022-07-24T13:57:20;7.50;;;6.80;;
13973;SDS011;7060;43.770;4.008;2022-07-24T14:00:05;7.00;;;6.35;;
13973;SDS011;7060;43.770;4.008;2022-07-24T14:02:35;7.28;;;6.68;;
13973;SDS011;7060;43.770;4.008;2022-07-24T14:05:04;6.80;;;6.30;;
13973;SDS011;7060;43.770;4.008;2022-07-24T14:07:35;6.90;;;6.40;;
13973;SDS011;7060;43.770;4.008;2022-07-24T14:10:06;7.00;;;6.47;;
13973;SDS011;7060;43.770;4.008;2022-07-24T14:12:35;8.48;;;7.75;;
13973;SDS011;7060;43.770;4.008;2022-07-24T14:15:04;7.20;;;6.70;;
13973;SDS011;7060;43.770;4.008;2022-07-24T14:17:35;7.53;;;6.90;;
13973;SDS011;7060;43.770;4.008;2022-07-24T14:20:07;7.30;;;6.70;;
13973;SDS011;7060;43.770;4.008;2022-07-24T14:22:39;7.85;;;7.13;;
13973;SDS011;7060;43.770;4.008;2022-07-24T14:25:09;6.45;;;6.00;;
13973;SDS011;7060;43.770;4.008;2022-07-24T14:27:38;8.55;;;6.68;;
13973;SDS011;7060;43.770;4.008;2022-07-24T14:30:07;6.88;;;6.47;;
13973;SDS011;7060;43.770;4.008;2022-07-24T14:32:37;7.13;;;6.43;;
13973;SDS011;7060;43.770;4.008;2022-07-24T14:35:07;7.18;;;6.10;;
13973;SDS011;7060;43.770;4.008;2022-07-24T14:37:36;6.97;;;6.40;;
13973;SDS011;7060;43.770;4.008;2022-07-24T14:40:08;6.57;;;6.03;;
13973;SDS011;7060;43.770;4.008;2022-07-24T14:42:37;7.22;;;6.63;;
13973;SDS011;7060;43.770;4.008;2022-07-24T14:45:06;6.40;;;5.80;;
13973;SDS011;7060;43.770;4.008;2022-07-24T14:47:36;6.45;;;5.80;;
13973;SDS011;7060;43.770;4.008;2022-07-24T14:50:06;6.35;;;5.88;;
13973;SDS011;7060;43.770;4.008;2022-07-24T14:52:36;7.43;;;6.20;;
13973;SDS011;7060;43.770;4.008;2022-07-24T14:55:08;6.85;;;6.25;;
13973;SDS011;7060;43.770;4.008;2022-07-24T14:57:36;6.43;;;5.85;;
13973;SDS011;7060;43.770;4.008;2022-07-24T15:00:06;6.70;;;6.10;;
13973;SDS011;7060;43.770;4.008;2022-07-24T15:02:36;6.57;;;6.07;;
13973;SDS011;7060;43.770;4.008;2022-07-24T15:05:05;6.78;;;6.18;;
13973;SDS011;7060;43.770;4.008;2022-07-24T15:07:34;6.43;;;5.93;;
13973;SDS011;7060;43.770;4.008;2022-07-24T15:10:03;6.88;;;6.30;;
13973;SDS011;7060;43.770;4.008;2022-07-24T15:12:34;5.80;;;5.40;;
13973;SDS011;7060;43.770;4.008;2022-07-24T15:15:03;6.38;;;5.85;;
13973;SDS011;7060;43.770;4.008;2022-07-24T15:17:33;6.63;;;6.03;;
13973;SDS011;7060;43.770;4.008;2022-07-24T15:20:02;6.65;;;6.20;;
13973;SDS011;7060;43.770;4.008;2022-07-24T15:22:32;6.35;;;5.78;;
13973;SDS011;7060;43.770;4.008;2022-07-24T15:25:01;6.05;;;5.45;;
13973;SDS011;7060;43.770;4.008;2022-07-24T15:27:30;7.70;;;6.00;;
13973;SDS011;7060;43.770;4.008;2022-07-24T15:30:00;6.60;;;6.00;;
13973;SDS011;7060;43.770;4.008;2022-07-24T15:32:29;5.63;;;5.22;;
13973;SDS011;7060;43.770;4.008;2022-07-24T15:34:58;6.90;;;5.70;;
13973;SDS011;7060;43.770;4.008;2022-07-24T15:37:29;6.60;;;5.43;;